Buckner, Illinois
Current Conditions -  °F | °C
As of 4:35 AM on Friday 24 Oct 2014 (Local Time) from KMWA Reporting Station
Overcast Overcast  
Wind Chill: 48°   Ceiling: 4100
Heat Index: 48°   Visibility: 10mi
Dew Point: 46°   Wind: 3mph
Humidity: 93%   Direction: 200°SSW
Pressure: 30.12"   Gusts: NA
Location:  37.98°N, 89.02°W
Report Text: KMWA 240935Z AUTO 20003KT 10SM SCT027 BKN041 OVC049 09/08 A3012 RMK AO2
Loading
Personal Weather Stations






























Interactive Weather Map
Tropical Storm Tracking
New forecast layout! Learn more

10-Day Weather Forecast

Advertisements
Track Severe Weather on mobile